sensor_id;sensor_type;location;lat;lon;timestamp;temperature;humidity
13598;DHT22;38563;54.258;12.574;2023-04-24T00:00:06;9.80;99.90
13598;DHT22;38563;54.258;12.574;2023-04-24T00:02:36;9.80;99.90
13598;DHT22;38563;54.258;12.574;2023-04-24T00:05:04;9.70;99.90
13598;DHT22;38563;54.258;12.574;2023-04-24T00:07:31;9.60;99.90
13598;DHT22;38563;54.258;12.574;2023-04-24T00:09:58;9.60;99.90
13598;DHT22;38563;54.258;12.574;2023-04-24T00:12:26;9.60;99.90
13598;DHT22;38563;54.258;12.574;2023-04-24T00:14:52;9.60;99.90
13598;DHT22;38563;54.258;12.574;2023-04-24T00:17:20;9.60;99.90
13598;DHT22;38563;54.258;12.574;2023-04-24T00:19:49;9.70;99.90
13598;DHT22;38563;54.258;12.574;2023-04-24T00:22:17;9.60;99.90
13598;DHT22;38563;54.258;12.574;2023-04-24T00:24:46;9.70;99.90
13598;DHT22;38563;54.258;12.574;2023-04-24T00:27:13;9.60;99.90
13598;DHT22;38563;54.258;12.574;2023-04-24T00:29:39;9.70;99.90
13598;DHT22;38563;54.258;12.574;2023-04-24T00:32:06;9.50;99.90
13598;DHT22;38563;54.258;12.574;2023-04-24T00:34:33;9.40;99.90
13598;DHT22;38563;54.258;12.574;2023-04-24T00:37:01;9.40;99.90
13598;DHT22;38563;54.258;12.574;2023-04-24T00:39:28;9.40;99.90
13598;DHT22;38563;54.258;12.574;2023-04-24T00:41:56;9.30;99.90
13598;DHT22;38563;54.258;12.574;2023-04-24T00:44:23;9.30;99.90
13598;DHT22;38563;54.258;12.574;2023-04-24T00:46:50;9.30;99.90
13598;DHT22;38563;54.258;12.574;2023-04-24T00:49:20;9.30;99.90
13598;DHT22;38563;54.258;12.574;2023-04-24T00:51:47;9.30;99.90
13598;DHT22;38563;54.258;12.574;2023-04-24T00:54:16;9.40;99.90
13598;DHT22;38563;54.258;12.574;2023-04-24T00:56:44;9.40;99.90
13598;DHT22;38563;54.258;12.574;2023-04-24T00:59:11;9.50;99.90
13598;DHT22;38563;54.258;12.574;2023-04-24T01:01:39;9.50;99.90
13598;DHT22;38563;54.258;12.574;2023-04-24T01:04:08;9.60;99.90
13598;DHT22;38563;54.258;12.574;2023-04-24T01:06:37;9.70;99.90
13598;DHT22;38563;54.258;12.574;2023-04-24T01:09:05;9.90;99.90
13598;DHT22;38563;54.258;12.574;2023-04-24T01:11:36;10.00;99.90
13598;DHT22;38563;54.258;12.574;2023-04-24T01:14:04;10.00;99.90
13598;DHT22;38563;54.258;12.574;2023-04-24T01:16:31;10.00;99.90
13598;DHT22;38563;54.258;12.574;2023-04-24T01:19:00;10.00;99.90
13598;DHT22;38563;54.258;12.574;2023-04-24T01:21:28;10.10;99.90
13598;DHT22;38563;54.258;12.574;2023-04-24T01:23:58;10.00;99.90
13598;DHT22;38563;54.258;12.574;2023-04-24T01:26:25;10.00;99.90
13598;DHT22;38563;54.258;12.574;2023-04-24T01:28:52;10.10;99.90
13598;DHT22;38563;54.258;12.574;2023-04-24T01:31:20;10.10;99.90
13598;DHT22;38563;54.258;12.574;2023-04-24T01:33:47;10.00;99.90
13598;DHT22;38563;54.258;12.574;2023-04-24T01:36:13;10.00;99.90
13598;DHT22;38563;54.258;12.574;2023-04-24T01:38:41;10.00;99.90
13598;DHT22;38563;54.258;12.574;2023-04-24T01:41:10;10.00;99.90
13598;DHT22;38563;54.258;12.574;2023-04-24T01:43:37;9.90;99.90
13598;DHT22;38563;54.258;12.574;2023-04-24T01:46:04;9.80;99.90
13598;DHT22;38563;54.258;12.574;2023-04-24T01:48:35;9.80;99.90
13598;DHT22;38563;54.258;12.574;2023-04-24T01:51:02;9.70;99.90
13598;DHT22;38563;54.258;12.574;2023-04-24T01:53:29;9.70;99.90
13598;DHT22;38563;54.258;12.574;2023-04-24T01:55:56;9.70;99.90
13598;DHT22;38563;54.258;12.574;2023-04-24T01:58:26;9.70;99.90
13598;DHT22;38563;54.258;12.574;2023-04-24T02:00:56;9.70;99.90
13598;DHT22;38563;54.258;12.574;2023-04-24T02:03:23;9.70;99.90
13598;DHT22;38563;54.258;12.574;2023-04-24T02:05:49;9.70;99.90
13598;DHT22;38563;54.258;12.574;2023-04-24T02:08:16;9.60;99.90
13598;DHT22;38563;54.258;12.574;2023-04-24T02:10:43;9.60;99.90
13598;DHT22;38563;54.258;12.574;2023-04-24T02:13:10;9.60;99.90
13598;DHT22;38563;54.258;12.574;2023-04-24T02:15:38;9.70;99.90
13598;DHT22;38563;54.258;12.574;2023-04-24T02:18:04;9.80;99.90
13598;DHT22;38563;54.258;12.574;2023-04-24T02:20:32;9.80;99.90
13598;DHT22;38563;54.258;12.574;2023-04-24T02:23:01;9.90;99.90
13598;DHT22;38563;54.258;12.574;2023-04-24T02:25:27;9.80;99.90
13598;DHT22;38563;54.258;12.574;2023-04-24T02:27:55;9.80;99.90
13598;DHT22;38563;54.258;12.574;2023-04-24T02:30:21;9.80;99.90
13598;DHT22;38563;54.258;12.574;2023-04-24T02:32:49;9.80;99.90
13598;DHT22;38563;54.258;12.574;2023-04-24T02:35:17;9.90;99.90
13598;DHT22;38563;54.258;12.574;2023-04-24T02:37:44;9.90;99.90
13598;DHT22;38563;54.258;12.574;2023-04-24T02:40:11;9.90;99.90
13598;DHT22;38563;54.258;12.574;2023-04-24T02:42:38;9.80;99.90
13598;DHT22;38563;54.258;12.574;2023-04-24T02:45:06;9.80;99.90
13598;DHT22;38563;54.258;12.574;2023-04-24T02:47:33;9.80;99.90
13598;DHT22;38563;54.258;12.574;2023-04-24T02:50:01;9.70;99.90
13598;DHT22;38563;54.258;12.574;2023-04-24T02:52:28;9.70;99.90
13598;DHT22;38563;54.258;12.574;2023-04-24T02:54:55;9.70;99.90
13598;DHT22;38563;54.258;12.574;2023-04-24T02:57:21;9.80;99.90
13598;DHT22;38563;54.258;12.574;2023-04-24T02:59:48;9.80;99.90
13598;DHT22;38563;54.258;12.574;2023-04-24T03:02:15;9.80;99.90
13598;DHT22;38563;54.258;12.574;2023-04-24T03:04:42;9.80;99.90
13598;DHT22;38563;54.258;12.574;2023-04-24T03:07:11;9.90;99.90
13598;DHT22;38563;54.258;12.574;2023-04-24T03:09:38;9.90;99.90
13598;DHT22;38563;54.258;12.574;2023-04-24T03:12:04;9.90;99.90
13598;DHT22;38563;54.258;12.574;2023-04-24T03:14:31;9.90;99.90
13598;DHT22;38563;54.258;12.574;2023-04-24T03:16:58;9.90;99.90
13598;DHT22;38563;54.258;12.574;2023-04-24T03:19:25;10.00;99.90
13598;DHT22;38563;54.258;12.574;2023-04-24T03:22:07;10.00;99.90
13598;DHT22;38563;54.258;12.574;2023-04-24T03:24:36;10.00;99.90
13598;DHT22;38563;54.258;12.574;2023-04-24T03:27:03;10.00;99.90
13598;DHT22;38563;54.258;12.574;2023-04-24T03:29:47;10.00;99.90
13598;DHT22;38563;54.258;12.574;2023-04-24T03:32:15;10.10;99.90
13598;DHT22;38563;54.258;12.574;2023-04-24T03:34:42;10.20;99.90
13598;DHT22;38563;54.258;12.574;2023-04-24T03:37:13;10.20;99.90
13598;DHT22;38563;54.258;12.574;2023-04-24T03:39:46;10.30;99.90
13598;DHT22;38563;54.258;12.574;2023-04-24T03:42:15;10.40;99.90
13598;DHT22;38563;54.258;12.574;2023-04-24T03:44:50;10.50;99.90
13598;DHT22;38563;54.258;12.574;2023-04-24T03:47:18;10.70;99.90
13598;DHT22;38563;54.258;12.574;2023-04-24T03:49:46;10.70;99.90
13598;DHT22;38563;54.258;12.574;2023-04-24T03:52:13;10.60;99.90
13598;DHT22;38563;54.258;12.574;2023-04-24T03:54:40;10.50;99.90
13598;DHT22;38563;54.258;12.574;2023-04-24T03:57:09;10.40;99.90
13598;DHT22;38563;54.258;12.574;2023-04-24T03:59:39;10.20;99.90
13598;DHT22;38563;54.258;12.574;2023-04-24T04:02:15;10.20;99.90
13598;DHT22;38563;54.258;12.574;2023-04-24T04:04:42;10.20;99.90
13598;DHT22;38563;54.258;12.574;2023-04-24T04:07:09;10.20;99.90
13598;DHT22;38563;54.258;12.574;2023-04-24T04:09:37;10.10;99.90
13598;DHT22;38563;54.258;12.574;2023-04-24T04:12:04;10.10;99.90
13598;DHT22;38563;54.258;12.574;2023-04-24T04:14:34;10.10;99.90
13598;DHT22;38563;54.258;12.574;2023-04-24T04:17:01;10.00;99.90
13598;DHT22;38563;54.258;12.574;2023-04-24T04:19:28;9.90;99.90
13598;DHT22;38563;54.258;12.574;2023-04-24T04:21:55;9.80;99.90
13598;DHT22;38563;54.258;12.574;2023-04-24T04:24:29;9.80;99.90
13598;DHT22;38563;54.258;12.574;2023-04-24T04:26:58;9.70;99.90
13598;DHT22;38563;54.258;12.574;2023-04-24T04:29:28;9.70;99.90
13598;DHT22;38563;54.258;12.574;2023-04-24T04:31:58;9.60;99.90
13598;DHT22;38563;54.258;12.574;2023-04-24T04:34:26;9.70;99.90
13598;DHT22;38563;54.258;12.574;2023-04-24T04:36:53;9.60;99.90
13598;DHT22;38563;54.258;12.574;2023-04-24T04:39:46;9.60;99.90
13598;DHT22;38563;54.258;12.574;2023-04-24T04:42:22;9.60;99.90
13598;DHT22;38563;54.258;12.574;2023-04-24T04:44:50;9.60;99.90
13598;DHT22;38563;54.258;12.574;2023-04-24T04:47:22;9.60;99.90
13598;DHT22;38563;54.258;12.574;2023-04-24T04:49:50;9.60;99.90
13598;DHT22;38563;54.258;12.574;2023-04-24T04:52:21;9.70;99.90
13598;DHT22;38563;54.258;12.574;2023-04-24T04:54:53;9.70;99.90
13598;DHT22;38563;54.258;12.574;2023-04-24T04:57:23;9.80;99.90
13598;DHT22;38563;54.258;12.574;2023-04-24T04:59:50;9.80;99.90
13598;DHT22;38563;54.258;12.574;2023-04-24T05:02:31;9.80;99.90
13598;DHT22;38563;54.258;12.574;2023-04-24T05:04:57;9.80;99.90
13598;DHT22;38563;54.258;12.574;2023-04-24T05:07:24;9.80;99.90
13598;DHT22;38563;54.258;12.574;2023-04-24T05:09:54;9.90;99.90
13598;DHT22;38563;54.258;12.574;2023-04-24T05:12:20;9.90;99.90
13598;DHT22;38563;54.258;12.574;2023-04-24T05:14:51;10.00;99.90
13598;DHT22;38563;54.258;12.574;2023-04-24T05:17:18;9.90;99.90
13598;DHT22;38563;54.258;12.574;2023-04-24T05:19:46;10.00;99.90
13598;DHT22;38563;54.258;12.574;2023-04-24T05:22:14;10.00;99.90
13598;DHT22;38563;54.258;12.574;2023-04-24T05:24:48;10.00;99.90
13598;DHT22;38563;54.258;12.574;2023-04-24T05:27:31;10.00;99.90
13598;DHT22;38563;54.258;12.574;2023-04-24T05:29:58;10.00;99.90
13598;DHT22;38563;54.258;12.574;2023-04-24T05:32:25;10.00;99.90
13598;DHT22;38563;54.258;12.574;2023-04-24T05:34:55;10.00;99.90
13598;DHT22;38563;54.258;12.574;2023-04-24T05:37:22;10.00;99.90
13598;DHT22;38563;54.258;12.574;2023-04-24T05:39:49;10.00;99.90
13598;DHT22;38563;54.258;12.574;2023-04-24T05:42:15;10.00;99.90
13598;DHT22;38563;54.258;12.574;2023-04-24T05:44:42;10.10;99.90
13598;DHT22;38563;54.258;12.574;2023-04-24T05:47:09;10.00;99.90
13598;DHT22;38563;54.258;12.574;2023-04-24T05:49:35;10.10;99.90
13598;DHT22;38563;54.258;12.574;2023-04-24T05:52:04;10.10;99.90
13598;DHT22;38563;54.258;12.574;2023-04-24T05:54:32;10.10;99.90
13598;DHT22;38563;54.258;12.574;2023-04-24T05:56:58;10.20;99.90
13598;DHT22;38563;54.258;12.574;2023-04-24T05:59:37;10.10;99.90
13598;DHT22;38563;54.258;12.574;2023-04-24T06:02:04;10.10;99.90
13598;DHT22;38563;54.258;12.574;2023-04-24T06:04:32;10.20;99.90
13598;DHT22;38563;54.258;12.574;2023-04-24T06:06:59;10.20;99.90
13598;DHT22;38563;54.258;12.574;2023-04-24T06:09:27;10.20;99.90
13598;DHT22;38563;54.258;12.574;2023-04-24T06:11:54;10.20;99.90
13598;DHT22;38563;54.258;12.574;2023-04-24T06:14:26;10.30;99.90
13598;DHT22;38563;54.258;12.574;2023-04-24T06:17:13;10.30;99.90
13598;DHT22;38563;54.258;12.574;2023-04-24T06:19:40;10.40;99.90
13598;DHT22;38563;54.258;12.574;2023-04-24T06:22:08;10.60;99.90
13598;DHT22;38563;54.258;12.574;2023-04-24T06:24:36;10.70;99.90
13598;DHT22;38563;54.258;12.574;2023-04-24T06:27:03;10.90;99.90
13598;DHT22;38563;54.258;12.574;2023-04-24T06:29:30;11.10;99.90
13598;DHT22;38563;54.258;12.574;2023-04-24T06:31:56;11.20;99.90
13598;DHT22;38563;54.258;12.574;2023-04-24T06:34:23;11.30;99.90
13598;DHT22;38563;54.258;12.574;2023-04-24T06:36:50;11.40;99.90
13598;DHT22;38563;54.258;12.574;2023-04-24T06:39:17;11.50;99.90
13598;DHT22;38563;54.258;12.574;2023-04-24T06:41:45;11.50;99.90
13598;DHT22;38563;54.258;12.574;2023-04-24T06:44:18;11.60;99.90
13598;DHT22;38563;54.258;12.574;2023-04-24T06:46:45;11.70;99.90
13598;DHT22;38563;54.258;12.574;2023-04-24T06:49:12;11.70;99.90
13598;DHT22;38563;54.258;12.574;2023-04-24T06:51:41;11.90;99.90
13598;DHT22;38563;54.258;12.574;2023-04-24T06:54:08;12.00;99.90
13598;DHT22;38563;54.258;12.574;2023-04-24T06:56:34;12.10;99.90
13598;DHT22;38563;54.258;12.574;2023-04-24T06:59:02;12.20;99.90
13598;DHT22;38563;54.258;12.574;2023-04-24T07:01:29;12.50;99.90
13598;DHT22;38563;54.258;12.574;2023-04-24T07:03:56;12.60;99.90
13598;DHT22;38563;54.258;12.574;2023-04-24T07:06:22;12.60;99.90
13598;DHT22;38563;54.258;12.574;2023-04-24T07:08:49;12.70;99.90
13598;DHT22;38563;54.258;12.574;2023-04-24T07:11:16;12.90;99.90
13598;DHT22;38563;54.258;12.574;2023-04-24T07:13:43;12.90;99.90
13598;DHT22;38563;54.258;12.574;2023-04-24T07:16:11;13.00;99.90
13598;DHT22;38563;54.258;12.574;2023-04-24T07:18:38;13.30;99.90
13598;DHT22;38563;54.258;12.574;2023-04-24T07:21:05;13.40;99.90
13598;DHT22;38563;54.258;12.574;2023-04-24T07:23:32;13.50;99.90
13598;DHT22;38563;54.258;12.574;2023-04-24T07:25:59;13.60;99.90
13598;DHT22;38563;54.258;12.574;2023-04-24T07:28:26;13.70;99.90
13598;DHT22;38563;54.258;12.574;2023-04-24T07:30:56;13.90;99.90
13598;DHT22;38563;54.258;12.574;2023-04-24T07:33:25;13.80;99.90
13598;DHT22;38563;54.258;12.574;2023-04-24T07:35:52;13.60;99.90
13598;DHT22;38563;54.258;12.574;2023-04-24T07:38:19;13.60;99.90
13598;DHT22;38563;54.258;12.574;2023-04-24T07:40:47;13.80;99.90
13598;DHT22;38563;54.258;12.574;2023-04-24T07:43:14;13.90;99.90
13598;DHT22;38563;54.258;12.574;2023-04-24T07:45:41;13.90;99.90
13598;DHT22;38563;54.258;12.574;2023-04-24T07:48:08;14.00;99.90
13598;DHT22;38563;54.258;12.574;2023-04-24T07:50:36;14.10;99.90
13598;DHT22;38563;54.258;12.574;2023-04-24T07:53:02;14.10;99.90
13598;DHT22;38563;54.258;12.574;2023-04-24T07:55:29;14.20;99.90
13598;DHT22;38563;54.258;12.574;2023-04-24T07:57:56;14.40;99.90
13598;DHT22;38563;54.258;12.574;2023-04-24T08:00:22;14.50;99.90
13598;DHT22;38563;54.258;12.574;2023-04-24T08:02:49;14.50;99.90
13598;DHT22;38563;54.258;12.574;2023-04-24T08:05:16;14.60;99.90
13598;DHT22;38563;54.258;12.574;2023-04-24T08:07:45;14.70;99.90
13598;DHT22;38563;54.258;12.574;2023-04-24T08:10:14;14.80;99.90
13598;DHT22;38563;54.258;12.574;2023-04-24T08:12:41;14.90;99.90
13598;DHT22;38563;54.258;12.574;2023-04-24T08:15:08;15.10;99.90
13598;DHT22;38563;54.258;12.574;2023-04-24T08:17:36;15.10;99.90
13598;DHT22;38563;54.258;12.574;2023-04-24T08:20:04;15.20;99.90
13598;DHT22;38563;54.258;12.574;2023-04-24T08:22:31;15.20;99.90
13598;DHT22;38563;54.258;12.574;2023-04-24T08:25:00;15.10;99.90
13598;DHT22;38563;54.258;12.574;2023-04-24T08:27:27;15.20;99.90
13598;DHT22;38563;54.258;12.574;2023-04-24T08:29:54;15.30;99.90
13598;DHT22;38563;54.258;12.574;2023-04-24T08:32:21;15.30;99.90
13598;DHT22;38563;54.258;12.574;2023-04-24T08:34:47;15.50;99.90
13598;DHT22;38563;54.258;12.574;2023-04-24T08:37:14;15.60;99.90
13598;DHT22;38563;54.258;12.574;2023-04-24T08:39:41;15.60;99.90
13598;DHT22;38563;54.258;12.574;2023-04-24T08:42:09;15.80;99.90
13598;DHT22;38563;54.258;12.574;2023-04-24T08:44:37;15.90;99.90
13598;DHT22;38563;54.258;12.574;2023-04-24T08:47:04;16.30;99.90
13598;DHT22;38563;54.258;12.574;2023-04-24T08:49:31;16.50;99.90
13598;DHT22;38563;54.258;12.574;2023-04-24T08:52:00;16.50;99.90
13598;DHT22;38563;54.258;12.574;2023-04-24T08:54:28;16.80;99.90
13598;DHT22;38563;54.258;12.574;2023-04-24T08:56:59;17.30;99.90
13598;DHT22;38563;54.258;12.574;2023-04-24T08:59:28;17.50;99.90
13598;DHT22;38563;54.258;12.574;2023-04-24T09:01:55;17.60;99.90
13598;DHT22;38563;54.258;12.574;2023-04-24T09:04:23;17.90;99.90
13598;DHT22;38563;54.258;12.574;2023-04-24T09:06:51;18.30;99.90
13598;DHT22;38563;54.258;12.574;2023-04-24T09:09:17;18.70;99.90
13598;DHT22;38563;54.258;12.574;2023-04-24T09:11:44;19.20;99.90
13598;DHT22;38563;54.258;12.574;2023-04-24T09:14:12;19.10;99.90
13598;DHT22;38563;54.258;12.574;2023-04-24T09:16:41;19.10;99.90
13598;DHT22;38563;54.258;12.574;2023-04-24T09:19:08;19.10;99.90
13598;DHT22;38563;54.258;12.574;2023-04-24T09:21:35;19.30;99.90
13598;DHT22;38563;54.258;12.574;2023-04-24T09:24:04;19.60;99.90
13598;DHT22;38563;54.258;12.574;2023-04-24T09:26:32;19.70;99.90
13598;DHT22;38563;54.258;12.574;2023-04-24T09:28:59;19.30;99.90
13598;DHT22;38563;54.258;12.574;2023-04-24T09:31:27;18.60;99.90
13598;DHT22;38563;54.258;12.574;2023-04-24T09:33:58;18.00;99.90
13598;DHT22;38563;54.258;12.574;2023-04-24T09:36:29;17.60;99.90
13598;DHT22;38563;54.258;12.574;2023-04-24T09:38:58;17.40;99.90
13598;DHT22;38563;54.258;12.574;2023-04-24T09:41:26;17.30;99.90
13598;DHT22;38563;54.258;12.574;2023-04-24T09:43:54;17.50;99.90
13598;DHT22;38563;54.258;12.574;2023-04-24T09:46:21;17.50;99.90
13598;DHT22;38563;54.258;12.574;2023-04-24T09:48:48;17.20;99.90
13598;DHT22;38563;54.258;12.574;2023-04-24T09:51:16;17.20;99.90
13598;DHT22;38563;54.258;12.574;2023-04-24T09:53:46;17.20;99.90
13598;DHT22;38563;54.258;12.574;2023-04-24T09:56:16;17.00;99.90
13598;DHT22;38563;54.258;12.574;2023-04-24T09:58:43;17.00;99.90
13598;DHT22;38563;54.258;12.574;2023-04-24T10:01:12;16.90;99.90
13598;DHT22;38563;54.258;12.574;2023-04-24T10:03:42;16.80;99.90
13598;DHT22;38563;54.258;12.574;2023-04-24T10:06:12;17.00;99.90
13598;DHT22;38563;54.258;12.574;2023-04-24T10:08:40;17.30;99.90
13598;DHT22;38563;54.258;12.574;2023-04-24T10:11:08;17.50;99.90
13598;DHT22;38563;54.258;12.574;2023-04-24T10:13:36;17.50;99.90
13598;DHT22;38563;54.258;12.574;2023-04-24T10:16:04;17.50;99.90
13598;DHT22;38563;54.258;12.574;2023-04-24T10:18:31;17.50;99.90
13598;DHT22;38563;54.258;12.574;2023-04-24T10:20:59;17.60;99.90
13598;DHT22;38563;54.258;12.574;2023-04-24T10:23:27;17.70;99.90
13598;DHT22;38563;54.258;12.574;2023-04-24T10:25:55;17.40;99.90
13598;DHT22;38563;54.258;12.574;2023-04-24T10:28:24;17.80;99.90
13598;DHT22;38563;54.258;12.574;2023-04-24T10:30:54;18.20;99.90
13598;DHT22;38563;54.258;12.574;2023-04-24T10:33:22;18.30;99.90
13598;DHT22;38563;54.258;12.574;2023-04-24T10:35:50;18.30;99.90
13598;DHT22;38563;54.258;12.574;2023-04-24T10:38:22;18.20;99.90
13598;DHT22;38563;54.258;12.574;2023-04-24T10:40:50;17.70;99.90
13598;DHT22;38563;54.258;12.574;2023-04-24T10:43:19;17.60;99.90
13598;DHT22;38563;54.258;12.574;2023-04-24T10:46:00;17.70;99.90
13598;DHT22;38563;54.258;12.574;2023-04-24T10:48:27;17.60;99.90
13598;DHT22;38563;54.258;12.574;2023-04-24T10:50:54;17.30;99.90
13598;DHT22;38563;54.258;12.574;2023-04-24T10:53:22;17.60;99.90
13598;DHT22;38563;54.258;12.574;2023-04-24T10:55:50;17.90;99.90
13598;DHT22;38563;54.258;12.574;2023-04-24T10:58:23;18.00;99.90
13598;DHT22;38563;54.258;12.574;2023-04-24T11:00:56;18.00;99.90
13598;DHT22;38563;54.258;12.574;2023-04-24T11:03:25;18.00;99.90
13598;DHT22;38563;54.258;12.574;2023-04-24T11:05:57;17.90;99.90
13598;DHT22;38563;54.258;12.574;2023-04-24T11:08:26;17.70;99.90
13598;DHT22;38563;54.258;12.574;2023-04-24T11:11:02;17.70;99.90
13598;DHT22;38563;54.258;12.574;2023-04-24T11:16:32;18.80;99.90
13598;DHT22;38563;54.258;12.574;2023-04-24T11:19:04;19.20;99.90
13598;DHT22;38563;54.258;12.574;2023-04-24T11:21:32;19.40;99.90
13598;DHT22;38563;54.258;12.574;2023-04-24T11:24:26;19.10;99.90
13598;DHT22;38563;54.258;12.574;2023-04-24T11:26:54;18.80;99.90
13598;DHT22;38563;54.258;12.574;2023-04-24T11:29:22;18.40;99.90
13598;DHT22;38563;54.258;12.574;2023-04-24T11:31:50;18.00;99.90
13598;DHT22;38563;54.258;12.574;2023-04-24T11:34:18;17.80;99.90
13598;DHT22;38563;54.258;12.574;2023-04-24T11:36:45;17.50;99.90
13598;DHT22;38563;54.258;12.574;2023-04-24T11:39:13;17.30;99.90
13598;DHT22;38563;54.258;12.574;2023-04-24T11:41:39;17.40;99.90
13598;DHT22;38563;54.258;12.574;2023-04-24T11:44:08;17.40;99.90
13598;DHT22;38563;54.258;12.574;2023-04-24T11:46:35;17.50;99.90
13598;DHT22;38563;54.258;12.574;2023-04-24T11:49:04;17.40;99.90
13598;DHT22;38563;54.258;12.574;2023-04-24T11:51:31;17.50;99.90
13598;DHT22;38563;54.258;12.574;2023-04-24T11:53:58;17.40;99.90
13598;DHT22;38563;54.258;12.574;2023-04-24T11:56:25;17.50;99.90
13598;DHT22;38563;54.258;12.574;2023-04-24T11:58:52;17.60;99.90
13598;DHT22;38563;54.258;12.574;2023-04-24T12:01:20;17.70;99.90
13598;DHT22;38563;54.258;12.574;2023-04-24T12:03:48;17.80;99.90
13598;DHT22;38563;54.258;12.574;2023-04-24T12:06:17;18.00;99.90
13598;DHT22;38563;54.258;12.574;2023-04-24T12:08:48;18.20;99.90
13598;DHT22;38563;54.258;12.574;2023-04-24T12:11:16;18.40;99.90
13598;DHT22;38563;54.258;12.574;2023-04-24T12:13:46;18.60;99.90
13598;DHT22;38563;54.258;12.574;2023-04-24T12:16:12;19.10;99.90
13598;DHT22;38563;54.258;12.574;2023-04-24T12:18:43;19.10;99.90
13598;DHT22;38563;54.258;12.574;2023-04-24T12:21:19;19.10;99.90
13598;DHT22;38563;54.258;12.574;2023-04-24T12:23:46;18.80;99.90
13598;DHT22;38563;54.258;12.574;2023-04-24T12:26:16;18.40;99.90
13598;DHT22;38563;54.258;12.574;2023-04-24T12:28:46;18.20;99.90
13598;DHT22;38563;54.258;12.574;2023-04-24T12:31:14;19.00;99.90
13598;DHT22;38563;54.258;12.574;2023-04-24T12:33:40;19.70;99.90
13598;DHT22;38563;54.258;12.574;2023-04-24T12:36:10;20.10;99.90
13598;DHT22;38563;54.258;12.574;2023-04-24T12:38:39;20.20;99.90
13598;DHT22;38563;54.258;12.574;2023-04-24T12:41:07;19.80;99.90
13598;DHT22;38563;54.258;12.574;2023-04-24T12:43:34;19.40;99.90
13598;DHT22;38563;54.258;12.574;2023-04-24T12:46:02;19.10;99.90
13598;DHT22;38563;54.258;12.574;2023-04-24T12:48:29;19.00;99.90
13598;DHT22;38563;54.258;12.574;2023-04-24T12:50:57;18.60;99.90
13598;DHT22;38563;54.258;12.574;2023-04-24T12:53:26;18.20;99.90
13598;DHT22;38563;54.258;12.574;2023-04-24T12:55:56;17.90;99.90
13598;DHT22;38563;54.258;12.574;2023-04-24T12:58:23;17.70;99.90
13598;DHT22;38563;54.258;12.574;2023-04-24T13:00:50;17.80;99.90
13598;DHT22;38563;54.258;12.574;2023-04-24T13:03:18;17.70;99.90
13598;DHT22;38563;54.258;12.574;2023-04-24T13:05:45;17.70;99.90
13598;DHT22;38563;54.258;12.574;2023-04-24T13:08:11;17.90;99.90
13598;DHT22;38563;54.258;12.574;2023-04-24T13:10:39;18.00;99.90
13598;DHT22;38563;54.258;12.574;2023-04-24T13:13:08;18.20;99.90
13598;DHT22;38563;54.258;12.574;2023-04-24T13:15:35;18.20;99.90
13598;DHT22;38563;54.258;12.574;2023-04-24T13:18:01;18.10;99.90
13598;DHT22;38563;54.258;12.574;2023-04-24T13:20:28;18.00;99.90
13598;DHT22;38563;54.258;12.574;2023-04-24T13:22:55;17.90;99.90
13598;DHT22;38563;54.258;12.574;2023-04-24T13:25:21;17.70;99.90
13598;DHT22;38563;54.258;12.574;2023-04-24T13:27:49;17.50;99.90
13598;DHT22;38563;54.258;12.574;2023-04-24T13:30:17;17.10;99.90
13598;DHT22;38563;54.258;12.574;2023-04-24T13:32:44;16.70;99.90
13598;DHT22;38563;54.258;12.574;2023-04-24T13:35:11;16.40;99.90
13598;DHT22;38563;54.258;12.574;2023-04-24T13:37:37;16.00;99.90
13598;DHT22;38563;54.258;12.574;2023-04-24T13:40:05;15.40;99.90
13598;DHT22;38563;54.258;12.574;2023-04-24T13:42:32;14.70;99.90
13598;DHT22;38563;54.258;12.574;2023-04-24T13:44:59;14.30;99.90
13598;DHT22;38563;54.258;12.574;2023-04-24T13:47:27;14.10;99.90
13598;DHT22;38563;54.258;12.574;2023-04-24T13:49:54;13.90;99.90
13598;DHT22;38563;54.258;12.574;2023-04-24T13:52:20;13.60;99.90
13598;DHT22;38563;54.258;12.574;2023-04-24T13:54:47;13.30;99.90
13598;DHT22;38563;54.258;12.574;2023-04-24T13:57:14;13.00;99.90
13598;DHT22;38563;54.258;12.574;2023-04-24T13:59:42;12.70;99.90
13598;DHT22;38563;54.258;12.574;2023-04-24T14:02:08;12.40;99.90
13598;DHT22;38563;54.258;12.574;2023-04-24T14:04:36;12.30;99.90
13598;DHT22;38563;54.258;12.574;2023-04-24T14:07:03;12.30;99.90
13598;DHT22;38563;54.258;12.574;2023-04-24T14:09:30;12.30;99.90
13598;DHT22;38563;54.258;12.574;2023-04-24T14:11:56;12.30;99.90
13598;DHT22;38563;54.258;12.574;2023-04-24T14:14:23;12.50;99.90
13598;DHT22;38563;54.258;12.574;2023-04-24T14:16:50;12.60;99.90
13598;DHT22;38563;54.258;12.574;2023-04-24T14:19:17;12.60;99.90
13598;DHT22;38563;54.258;12.574;2023-04-24T14:21:45;12.60;99.90
13598;DHT22;38563;54.258;12.574;2023-04-24T14:24:11;12.60;99.90
13598;DHT22;38563;54.258;12.574;2023-04-24T14:26:38;12.70;99.90
13598;DHT22;38563;54.258;12.574;2023-04-24T14:29:05;12.80;99.90
13598;DHT22;38563;54.258;12.574;2023-04-24T14:31:31;12.90;99.90
13598;DHT22;38563;54.258;12.574;2023-04-24T14:33:58;13.10;99.90
13598;DHT22;38563;54.258;12.574;2023-04-24T14:36:25;13.20;99.90
13598;DHT22;38563;54.258;12.574;2023-04-24T14:38:53;13.30;99.90
13598;DHT22;38563;54.258;12.574;2023-04-24T14:41:19;13.50;99.90
13598;DHT22;38563;54.258;12.574;2023-04-24T14:43:46;13.80;99.90
13598;DHT22;38563;54.258;12.574;2023-04-24T14:46:13;14.40;99.90
13598;DHT22;38563;54.258;12.574;2023-04-24T14:48:40;15.30;99.90
13598;DHT22;38563;54.258;12.574;2023-04-24T14:51:06;16.10;99.90
13598;DHT22;38563;54.258;12.574;2023-04-24T14:53:33;16.60;99.90
13598;DHT22;38563;54.258;12.574;2023-04-24T14:56:02;17.00;99.90
13598;DHT22;38563;54.258;12.574;2023-04-24T14:58:28;17.40;99.90
13598;DHT22;38563;54.258;12.574;2023-04-24T15:00:55;17.90;99.90
13598;DHT22;38563;54.258;12.574;2023-04-24T15:03:22;18.40;99.90
13598;DHT22;38563;54.258;12.574;2023-04-24T15:05:48;18.80;99.90
13598;DHT22;38563;54.258;12.574;2023-04-24T15:08:15;18.90;99.90
13598;DHT22;38563;54.258;12.574;2023-04-24T15:10:42;18.90;99.90
13598;DHT22;38563;54.258;12.574;2023-04-24T15:13:10;19.10;99.90
13598;DHT22;38563;54.258;12.574;2023-04-24T15:15:37;19.00;99.90
13598;DHT22;38563;54.258;12.574;2023-04-24T15:18:04;19.10;99.90
13598;DHT22;38563;54.258;12.574;2023-04-24T15:20:31;19.30;99.90
13598;DHT22;38563;54.258;12.574;2023-04-24T15:22:57;19.00;99.90
13598;DHT22;38563;54.258;12.574;2023-04-24T15:25:25;18.80;99.90
13598;DHT22;38563;54.258;12.574;2023-04-24T15:27:51;18.50;99.90